createdAt,value
2016-01-04T00:00:09.453Z,93.65
2016-01-04T00:00:21.815Z,93.65
2016-01-04T00:00:34.175Z,93.65
2016-01-04T00:00:46.534Z,93.65
2016-01-04T00:00:58.878Z,93.65
2016-01-04T00:01:11.237Z,93.65
2016-01-04T00:01:23.600Z,93.37
2016-01-04T00:01:35.975Z,93.94
2016-01-04T00:01:48.350Z,93.94
2016-01-04T00:02:00.709Z,93.56
2016-01-04T00:02:13.095Z,94.13
2016-01-04T00:02:25.485Z,94.13
2016-01-04T00:02:37.704Z,94.13
2016-01-04T00:02:50.079Z,94.31
2016-01-04T00:03:03.126Z,94.03
2016-01-04T00:03:15.520Z,94.22
2016-01-04T00:03:27.910Z,93.75
2016-01-04T00:03:40.301Z,93.75
2016-01-04T00:03:52.691Z,93.84
2016-01-04T00:04:05.082Z,93.84
2016-01-04T00:04:17.459Z,93.75
2016-01-04T00:04:29.850Z,93.84
2016-01-04T00:04:42.256Z,93.94
2016-01-04T00:04:54.615Z,94.22
2016-01-04T00:05:06.975Z,94.13
2016-01-04T00:05:19.321Z,94.13
2016-01-04T00:05:31.681Z,94.03
2016-01-04T00:05:44.056Z,94.41
2016-01-04T00:05:56.415Z,94.41
2016-01-04T00:06:08.759Z,94.03
2016-01-04T00:06:21.137Z,94.79
2016-01-04T00:06:33.512Z,94.31
2016-01-04T00:06:45.871Z,94.13
2016-01-04T00:06:58.231Z,94.69
2016-01-04T00:07:10.574Z,94.31
2016-01-04T00:07:22.937Z,94.5
2016-01-04T00:07:35.312Z,94.88
2016-01-04T00:07:47.687Z,94.5
2016-01-04T00:08:00.046Z,94.41
2016-01-04T00:08:12.421Z,94.69
2016-01-04T00:08:24.798Z,94.98
2016-01-04T00:08:37.204Z,94.13
2016-01-04T00:08:49.595Z,95.26
2016-01-04T00:09:01.986Z,94.6
2016-01-04T00:09:14.361Z,94.31
2016-01-04T00:09:26.739Z,94.31
2016-01-04T00:09:39.082Z,94.5
2016-01-04T00:09:51.442Z,94.22
2016-01-04T00:10:03.801Z,94.41
2016-01-04T00:10:16.176Z,94.31
2016-01-04T00:10:28.539Z,94.5
2016-01-04T00:10:40.898Z,94.31
2016-01-04T00:10:53.257Z,94.69
2016-01-04T00:11:05.601Z,94.13
2016-01-04T00:11:17.976Z,93.94
2016-01-04T00:11:30.337Z,93.94
2016-01-04T00:11:42.712Z,94.13
2016-01-04T00:11:55.072Z,94.31
2016-01-04T00:12:07.462Z,94.22
2016-01-04T00:12:19.853Z,94.22
2016-01-04T00:12:32.263Z,94.69
2016-01-04T00:12:44.670Z,94.6
2016-01-04T00:12:57.029Z,94.31
2016-01-04T00:13:09.388Z,94.13
2016-01-04T00:13:21.748Z,94.31
2016-01-04T00:13:34.109Z,94.5
2016-01-04T00:13:46.468Z,94.31
2016-01-04T00:13:58.828Z,94.5
2016-01-04T00:14:11.172Z,94.13
2016-01-04T00:14:23.531Z,94.6
2016-01-04T00:14:35.892Z,94.22
2016-01-04T00:14:48.252Z,94.6
2016-01-04T00:15:00.611Z,94.22
2016-01-04T00:15:12.955Z,94.31
2016-01-04T00:15:25.330Z,94.13
2016-01-04T00:15:37.709Z,94.22
2016-01-04T00:15:50.084Z,94.41
2016-01-04T00:16:02.443Z,94.13
2016-01-04T00:16:14.834Z,94.13
2016-01-04T00:16:27.209Z,94.31
2016-01-04T00:16:39.601Z,94.03
2016-01-04T00:16:51.992Z,93.94
2016-01-04T00:17:04.383Z,94.5
2016-01-04T00:17:16.758Z,94.31
2016-01-04T00:17:28.430Z,94.98
2016-01-04T00:17:40.823Z,94.69
2016-01-04T00:17:53.214Z,95.35
2016-01-04T00:18:05.573Z,95.35
2016-01-04T00:18:17.917Z,95.26
2016-01-04T00:18:30.276Z,95.45
2016-01-04T00:18:42.669Z,95.82
2016-01-04T00:18:55.028Z,95.82
2016-01-04T00:19:07.388Z,95.82
2016-01-04T00:19:19.731Z,95.35
2016-01-04T00:19:32.091Z,95.07
2016-01-04T00:19:44.453Z,95.45
2016-01-04T00:19:56.813Z,95.35
2016-01-04T00:20:09.172Z,95.16
2016-01-04T00:20:21.531Z,94.88
2016-01-04T00:20:33.922Z,94.69
2016-01-04T00:20:46.300Z,94.88
2016-01-04T00:20:58.675Z,94.88
2016-01-04T00:21:11.034Z,94.69
2016-01-04T00:21:23.409Z,94.98
2016-01-04T00:21:35.800Z,94.5
2016-01-04T00:21:48.178Z,95.26
2016-01-04T00:22:00.553Z,95.07
2016-01-04T00:22:12.928Z,94.98
2016-01-04T00:22:25.319Z,95.54
2016-01-04T00:22:37.740Z,95.26
2016-01-04T00:22:50.150Z,95.35
2016-01-04T00:23:02.493Z,95.07
2016-01-04T00:23:14.837Z,95.54
2016-01-04T00:23:27.212Z,95.64
2016-01-04T00:23:39.556Z,95.73
2016-01-04T00:23:51.934Z,95.45
2016-01-04T00:24:03.387Z,95.73
2016-01-04T00:24:14.825Z,95.82
2016-01-04T00:24:26.293Z,95.45
2016-01-04T00:24:37.746Z,95.45
2016-01-04T00:24:49.218Z,95.64
2016-01-04T00:25:00.656Z,95.82
2016-01-04T00:25:12.109Z,95.26
2016-01-04T00:25:23.562Z,95.07
2016-01-04T00:25:35.015Z,95.07
2016-01-04T00:25:46.470Z,95.07
2016-01-04T00:25:57.939Z,94.98
2016-01-04T00:26:09.392Z,94.98
2016-01-04T00:26:20.845Z,95.26
2016-01-04T00:26:32.314Z,95.26
2016-01-04T00:26:43.800Z,95.35
2016-01-04T00:26:55.285Z,95.26
2016-01-04T00:27:06.753Z,95.26
2016-01-04T00:27:18.082Z,95.26
2016-01-04T00:27:29.550Z,95.26
2016-01-04T00:27:41.035Z,95.16
2016-01-04T00:27:52.522Z,95.54
2016-01-04T00:28:03.975Z,95.73
2016-01-04T00:28:15.413Z,95.45
2016-01-04T00:28:26.881Z,95.45
2016-01-04T00:28:38.335Z,95.73
2016-01-04T00:28:49.791Z,95.64
2016-01-04T00:29:01.228Z,95.54
2016-01-04T00:29:12.681Z,95.45
2016-01-04T00:29:24.134Z,95.45
2016-01-04T00:29:35.588Z,95.92
2016-01-04T00:29:47.043Z,95.92
2016-01-04T00:29:58.511Z,95.73
2016-01-04T00:30:09.965Z,95.45
2016-01-04T00:30:21.418Z,95.64
2016-01-04T00:30:32.871Z,95.54
2016-01-04T00:30:44.327Z,95.54
2016-01-04T00:30:55.796Z,95.35
2016-01-04T00:31:07.264Z,95.45
2016-01-04T00:31:18.718Z,95.64
2016-01-04T00:31:30.186Z,95.82
2016-01-04T00:31:41.655Z,95.45
2016-01-04T00:31:53.128Z,95.73
2016-01-04T00:32:04.597Z,95.45
2016-01-04T00:32:16.065Z,95.82
2016-01-04T00:32:27.550Z,95.54
2016-01-04T00:32:39.018Z,95.45
2016-01-04T00:32:50.520Z,95.26
2016-01-04T00:33:01.989Z,95.73
2016-01-04T00:33:13.427Z,95.45
2016-01-04T00:33:24.911Z,95.64
2016-01-04T00:33:36.364Z,95.45
2016-01-04T00:33:47.819Z,95.45
2016-01-04T00:33:59.272Z,95.73
2016-01-04T00:34:10.726Z,95.45
2016-01-04T00:34:22.179Z,95.45
2016-01-04T00:34:33.632Z,95.64
2016-01-04T00:34:45.119Z,95.64
2016-01-04T00:34:56.572Z,95.54
2016-01-04T00:35:08.041Z,95.45
2016-01-04T00:35:19.494Z,95.73
2016-01-04T00:35:30.947Z,96.11
2016-01-04T00:35:42.400Z,95.73
2016-01-04T00:35:53.857Z,95.92
2016-01-04T00:36:05.325Z,96.11
2016-01-04T00:36:16.794Z,96.39
2016-01-04T00:36:28.107Z,96.39
2016-01-04T00:36:38.872Z,96.11
2016-01-04T00:36:50.328Z,96.3
2016-01-04T00:37:01.813Z,96.58
2016-01-04T00:37:13.281Z,96.58
2016-01-04T00:37:24.766Z,96.39
2016-01-04T00:37:36.250Z,96.67
2016-01-04T00:37:47.722Z,96.86
2016-01-04T00:37:59.206Z,96.77
2016-01-04T00:38:10.675Z,96.86
2016-01-04T00:38:22.159Z,96.86
2016-01-04T00:38:33.659Z,96.58
2016-01-04T00:38:45.113Z,96.86
2016-01-04T00:38:56.568Z,96.77
2016-01-04T00:39:08.021Z,96.67
2016-01-04T00:39:19.474Z,96.86
2016-01-04T00:39:30.943Z,96.67
2016-01-04T00:39:42.380Z,96.86
2016-01-04T00:39:53.852Z,96.86
2016-01-04T00:40:05.289Z,96.77
2016-01-04T00:40:16.743Z,96.48
2016-01-04T00:40:27.508Z,96.72
2016-01-04T00:40:38.961Z,96.77
2016-01-04T00:40:50.433Z,97.14
2016-01-04T00:41:01.871Z,97
2016-01-04T00:41:13.324Z,97.28
2016-01-04T00:41:24.792Z,97.09
2016-01-04T00:41:36.246Z,97.38
2016-01-04T00:41:46.996Z,96.91
2016-01-04T00:41:58.467Z,97.19
2016-01-04T00:42:09.936Z,96.81
2016-01-04T00:42:21.389Z,97
2016-01-04T00:42:32.858Z,97.09
2016-01-04T00:42:44.342Z,97.38
2016-01-04T00:42:55.814Z,97.47
2016-01-04T00:43:07.298Z,97.38
2016-01-04T00:43:18.783Z,97.47
2016-01-04T00:43:30.267Z,97.85
2016-01-04T00:43:41.752Z,97.66
2016-01-04T00:43:53.238Z,97.56
2016-01-04T00:44:04.707Z,97.85
2016-01-04T00:44:16.207Z,97.56
2016-01-04T00:44:27.675Z,97.28
2016-01-04T00:44:39.113Z,97.75
2016-01-04T00:44:50.582Z,97.56
2016-01-04T00:45:02.022Z,97.09
2016-01-04T00:45:13.475Z,97
2016-01-04T00:45:24.928Z,96.91
2016-01-04T00:45:36.382Z,96.81
2016-01-04T00:45:47.835Z,97.09
2016-01-04T00:45:59.291Z,97.09
2016-01-04T00:46:10.728Z,97
2016-01-04T00:46:22.181Z,97
2016-01-04T00:46:33.635Z,96.53
2016-01-04T00:46:45.088Z,96.62
2016-01-04T00:46:56.543Z,97
2016-01-04T00:47:07.996Z,96.44
2016-01-04T00:47:19.449Z,96.25
2016-01-04T00:47:30.902Z,96.34
2016-01-04T00:47:42.387Z,96.53
2016-01-04T00:47:53.857Z,96.53
2016-01-04T00:48:05.310Z,96.44
2016-01-04T00:48:16.764Z,95.97
2016-01-04T00:48:28.232Z,96.44
2016-01-04T00:48:39.701Z,95.97
2016-01-04T00:48:51.185Z,95.68
2016-01-04T00:49:02.673Z,95.59
2016-01-04T00:49:14.142Z,95.78
2016-01-04T00:49:25.626Z,95.78
2016-01-04T00:49:37.110Z,95.78
2016-01-04T00:49:48.595Z,95.78
2016-01-04T00:50:00.098Z,95.68
2016-01-04T00:50:11.598Z,95.97
2016-01-04T00:50:23.051Z,96.53
2016-01-04T00:50:34.504Z,96.34
2016-01-04T00:50:45.973Z,96.15
2016-01-04T00:50:57.413Z,96.15
2016-01-04T00:51:08.866Z,96.15
2016-01-04T00:51:20.335Z,96.53
2016-01-04T00:51:31.788Z,96.34
2016-01-04T00:51:43.241Z,96.44
2016-01-04T00:51:54.696Z,96.44
2016-01-04T00:52:06.150Z,96.53
2016-01-04T00:52:17.603Z,96.34
2016-01-04T00:52:29.040Z,96.44
2016-01-04T00:52:40.493Z,96.25
2016-01-04T00:52:51.931Z,96.53
2016-01-04T00:53:03.371Z,96.53
2016-01-04T00:53:14.824Z,97
2016-01-04T00:53:26.278Z,96.53
2016-01-04T00:53:37.746Z,97
2016-01-04T00:53:49.199Z,97.09
2016-01-04T00:54:00.656Z,96.44
2016-01-04T00:54:12.140Z,96.25
2016-01-04T00:54:23.609Z,96.44
2016-01-04T00:54:35.093Z,96.34
2016-01-04T00:54:46.577Z,96.62
2016-01-04T00:54:58.065Z,96.06
2016-01-04T00:55:09.534Z,96.53
2016-01-04T00:55:21.018Z,96.15
2016-01-04T00:55:32.502Z,96.34
2016-01-04T00:55:43.987Z,96.53
2016-01-04T00:55:55.474Z,96.44
2016-01-04T00:56:06.208Z,96.44
2016-01-04T00:56:17.662Z,96.25
2016-01-04T00:56:29.115Z,96.62
2016-01-04T00:56:40.568Z,97
2016-01-04T00:56:52.005Z,96.91
2016-01-04T00:57:03.476Z,96.81
2016-01-04T00:57:14.914Z,97.09
2016-01-04T00:57:25.664Z,97.09
2016-01-04T00:57:37.117Z,97.19
2016-01-04T00:57:48.570Z,96.72
2016-01-04T00:58:00.009Z,96.62
2016-01-04T00:58:11.462Z,97
2016-01-04T00:58:22.916Z,96.25
2016-01-04T00:58:34.369Z,96.25
2016-01-04T00:58:45.822Z,96.34
2016-01-04T00:58:57.275Z,96.25
2016-01-04T00:59:08.732Z,96.25
2016-01-04T00:59:20.201Z,96.44
2016-01-04T00:59:31.670Z,96.25
2016-01-04T00:59:43.138Z,96.25
2016-01-04T00:59:54.607Z,96.15
2016-01-04T01:00:06.094Z,96.72
2016-01-04T01:00:17.563Z,97
2016-01-04T01:00:29.048Z,96.62
2016-01-04T01:00:40.532Z,96.91
2016-01-04T01:00:52.001Z,96.72
2016-01-04T01:01:03.471Z,96.81
2016-01-04T01:01:14.956Z,96.91
2016-01-04T01:01:26.471Z,97.28
2016-01-04T01:01:37.753Z,97
2016-01-04T01:01:49.206Z,97.09
2016-01-04T01:02:00.662Z,97.09
2016-01-04T01:02:12.131Z,97.19
2016-01-04T01:02:23.584Z,97.09
2016-01-04T01:02:35.037Z,96.81
2016-01-04T01:02:46.490Z,96.91
2016-01-04T01:02:57.943Z,96.62
2016-01-04T01:03:09.398Z,96.91
2016-01-04T01:03:20.851Z,97
2016-01-04T01:03:32.289Z,96.53
2016-01-04T01:03:43.758Z,96.25
2016-01-04T01:03:55.211Z,96.34
2016-01-04T01:04:06.667Z,96.62
2016-01-04T01:04:19.339Z,96.53
2016-01-04T01:04:30.792Z,96.44
2016-01-04T01:04:42.229Z,96.15
2016-01-04T01:04:53.698Z,96.44
2016-01-04T01:05:05.170Z,96.44
2016-01-04T01:05:16.623Z,96.44
2016-01-04T01:05:28.092Z,96.91
2016-01-04T01:05:39.561Z,96.81
2016-01-04T01:05:51.029Z,96.62
2016-01-04T01:06:02.501Z,96.81
2016-01-04T01:06:13.985Z,97.09
2016-01-04T01:06:25.470Z,97.09
2016-01-04T01:06:36.939Z,97.09
2016-01-04T01:06:48.407Z,97.09
2016-01-04T01:06:59.892Z,97
2016-01-04T01:07:11.348Z,97
2016-01-04T01:07:22.129Z,97
2016-01-04T01:07:33.582Z,97.09
2016-01-04T01:07:45.035Z,97.19
2016-01-04T01:07:56.488Z,97.09
2016-01-04T01:08:07.943Z,96.81
2016-01-04T01:08:19.396Z,96.62
2016-01-04T01:08:30.849Z,96.81
2016-01-04T01:08:42.302Z,96.34
2016-01-04T01:08:53.755Z,96.53
2016-01-04T01:09:05.228Z,96.34
2016-01-04T01:09:16.681Z,96.25
2016-01-04T01:09:28.134Z,96.25
2016-01-04T01:09:39.603Z,96.34
2016-01-04T01:09:51.056Z,96.53
2016-01-04T01:10:02.509Z,96.44
2016-01-04T01:10:13.949Z,96.44
2016-01-04T01:10:25.402Z,95.97
2016-01-04T01:10:36.886Z,96.44
2016-01-04T01:10:48.355Z,96.25
2016-01-04T01:10:59.808Z,95.97
2016-01-04T01:11:11.280Z,95.87
2016-01-04T01:11:22.592Z,95.59
2016-01-04T01:11:34.077Z,95.87
2016-01-04T01:11:45.561Z,95.97
2016-01-04T01:11:57.045Z,95.97
2016-01-04T01:12:08.517Z,95.97
2016-01-04T01:12:20.001Z,96.06
2016-01-04T01:12:31.486Z,96.25
2016-01-04T01:12:42.955Z,96.34
2016-01-04T01:12:54.439Z,96.25
2016-01-04T01:13:05.925Z,96.06
2016-01-04T01:13:17.378Z,96.34
2016-01-04T01:13:28.832Z,96.44
2016-01-04T01:13:40.269Z,95.97
2016-01-04T01:13:51.722Z,95.97
2016-01-04T01:14:02.472Z,95.78
2016-01-04T01:14:13.788Z,95.78
2016-01-04T01:14:25.241Z,95.68
2016-01-04T01:14:36.694Z,96.06
2016-01-04T01:14:48.147Z,95.97
2016-01-04T01:14:59.616Z,95.87
2016-01-04T01:15:11.056Z,95.97
2016-01-04T01:15:22.509Z,95.78
2016-01-04T01:15:33.291Z,95.78
2016-01-04T01:15:44.759Z,95.78
2016-01-04T01:15:55.494Z,95.78
2016-01-04T01:16:06.947Z,95.97
2016-01-04T01:16:17.716Z,95.97
2016-01-04T01:16:29.169Z,96.06
2016-01-04T01:16:40.637Z,96.06
2016-01-04T01:16:52.106Z,95.97
2016-01-04T01:17:03.559Z,95.59
2016-01-04T01:17:15.046Z,95.68
2016-01-04T01:17:26.514Z,96.25
2016-01-04T01:17:37.999Z,96.44
2016-01-04T01:17:49.468Z,96.34
2016-01-04T01:18:00.936Z,96.44
2016-01-04T01:18:12.423Z,96.44
2016-01-04T01:18:23.891Z,96.25
2016-01-04T01:18:35.407Z,96.44
2016-01-04T01:18:46.860Z,96.25
2016-01-04T01:18:58.313Z,96.15
2016-01-04T01:19:09.769Z,96.25
2016-01-04T01:19:21.223Z,96.44
2016-01-04T01:19:32.676Z,97
2016-01-04T01:19:44.113Z,96.91
2016-01-04T01:19:55.582Z,96.91
2016-01-04T01:20:07.035Z,96.62
2016-01-04T01:20:18.492Z,96.81
2016-01-04T01:20:29.945Z,96.81
2016-01-04T01:20:41.398Z,97
2016-01-04T01:20:52.148Z,97.19
2016-01-04T01:21:03.445Z,97.09
2016-01-04T01:21:14.745Z,97
2016-01-04T01:21:26.198Z,97
2016-01-04T01:21:37.651Z,97.19
2016-01-04T01:22:23.685Z,97.19
2016-01-04T01:22:35.138Z,96.91
2016-01-04T01:22:46.607Z,97.19
2016-01-04T01:22:58.075Z,97.09
2016-01-04T01:23:09.560Z,97
2016-01-04T01:23:21.031Z,97.09
2016-01-04T01:23:32.500Z,97.09
2016-01-04T01:23:43.985Z,97
2016-01-04T01:23:55.453Z,97.19
2016-01-04T01:24:06.922Z,97.19
2016-01-04T01:24:18.394Z,97.19
2016-01-04T01:24:29.863Z,97.09
2016-01-04T01:24:41.316Z,97.09
2016-01-04T01:24:52.753Z,96.91
2016-01-04T01:25:04.206Z,97
2016-01-04T01:25:15.646Z,96.81
2016-01-04T01:25:27.099Z,96.72
2016-01-04T01:25:37.849Z,96.81
2016-01-04T01:25:49.302Z,96.62
2016-01-04T01:26:00.755Z,97
2016-01-04T01:26:12.193Z,97.09
2016-01-04T01:26:23.649Z,97.09
2016-01-04T01:26:35.102Z,97.28
2016-01-04T01:26:46.555Z,97.09
2016-01-04T01:26:58.008Z,97.19
2016-01-04T01:27:09.446Z,97.19
2016-01-04T01:27:20.916Z,96.91
2016-01-04T01:27:32.370Z,96.91
2016-01-04T01:27:43.823Z,97.56
2016-01-04T01:27:55.291Z,97.19
2016-01-04T01:28:06.760Z,97.38
2016-01-04T01:28:18.216Z,98.04
2016-01-04T01:28:29.669Z,97.75
2016-01-04T01:28:41.154Z,97.94
2016-01-04T01:28:52.638Z,98.23
2016-01-04T01:29:04.123Z,97.85
2016-01-04T01:29:15.607Z,97.66
2016-01-04T01:29:27.079Z,98.23
2016-01-04T01:29:38.563Z,97.94
2016-01-04T01:29:50.047Z,97.56
2016-01-04T01:30:01.532Z,97.75
2016-01-04T01:30:12.985Z,97.56
2016-01-04T01:30:24.456Z,97.56
2016-01-04T01:30:35.909Z,98.04
2016-01-04T01:30:47.346Z,98.04
2016-01-04T01:30:58.799Z,97.47
2016-01-04T01:31:10.253Z,97.56
2016-01-04T01:31:21.709Z,97.09
2016-01-04T01:31:33.177Z,97.09
2016-01-04T01:31:44.631Z,97.28
2016-01-04T01:31:56.084Z,97.28
2016-01-04T01:32:07.521Z,97.38
2016-01-04T01:32:18.993Z,97.28
2016-01-04T01:32:30.430Z,97.09
2016-01-04T01:32:41.884Z,97.28
2016-01-04T01:32:53.337Z,97.28
2016-01-04T01:33:04.805Z,97.47
2016-01-04T01:33:16.274Z,97.66
2016-01-04T01:33:27.745Z,97.38
2016-01-04T01:33:39.214Z,97
2016-01-04T01:33:50.667Z,97.19
2016-01-04T01:34:02.136Z,97.09
2016-01-04T01:34:13.604Z,97.19
2016-01-04T01:34:25.092Z,97.19
2016-01-04T01:34:36.404Z,97.09
2016-01-04T01:34:47.889Z,97.09
2016-01-04T01:34:59.373Z,97.09
2016-01-04T01:35:10.857Z,97.19
2016-01-04T01:35:21.642Z,96.91
2016-01-04T01:35:33.110Z,97.09
2016-01-04T01:35:44.595Z,97
2016-01-04T01:35:56.095Z,97.09
2016-01-04T01:36:07.532Z,97.09
2016-01-04T01:36:18.985Z,97.09
2016-01-04T01:36:30.457Z,97.19
2016-01-04T01:36:41.895Z,96.72
2016-01-04T01:36:53.363Z,97
2016-01-04T01:37:04.816Z,97
2016-01-04T01:37:16.254Z,97.19
2016-01-04T01:37:27.709Z,97.28
2016-01-04T01:37:39.178Z,97.09
2016-01-04T01:37:50.631Z,97.09
2016-01-04T01:38:02.100Z,96.81
2016-01-04T01:38:13.537Z,96.91
2016-01-04T01:38:24.994Z,97
2016-01-04T01:38:36.447Z,96.81
2016-01-04T01:38:47.901Z,96.91
2016-01-04T01:38:59.354Z,96.91
2016-01-04T01:39:10.838Z,96.91
2016-01-04T01:39:22.309Z,97
2016-01-04T01:39:33.762Z,96.91
2016-01-04T01:39:44.512Z,97.28
2016-01-04T01:39:55.981Z,97.19
2016-01-04T01:40:07.449Z,97.09
2016-01-04T01:40:18.934Z,97.09
2016-01-04T01:40:30.421Z,97
2016-01-04T01:40:41.890Z,97.09
2016-01-04T01:40:53.374Z,96.72
2016-01-04T01:41:04.859Z,96.91
2016-01-04T01:41:16.327Z,96.62
2016-01-04T01:41:27.815Z,97
2016-01-04T01:41:39.299Z,96.44
2016-01-04T01:41:50.752Z,96.25
2016-01-04T01:42:02.205Z,96.25
2016-01-04T01:42:13.502Z,96.15
2016-01-04T01:42:24.957Z,96.25
2016-01-04T01:42:36.411Z,96.34
2016-01-04T01:42:47.864Z,96.53
2016-01-04T01:42:59.317Z,96.44
2016-01-04T01:43:10.770Z,96.15
2016-01-04T01:43:22.239Z,96.44
2016-01-04T01:43:33.695Z,96.34
2016-01-04T01:43:45.148Z,96.34
2016-01-04T01:43:56.617Z,96.34
2016-01-04T01:44:08.054Z,96.34
2016-01-04T01:44:19.507Z,96.34
2016-01-04T01:44:30.979Z,96.53
2016-01-04T01:44:42.417Z,96.53
2016-01-04T01:44:53.901Z,96.62
2016-01-04T01:45:05.354Z,96.44
2016-01-04T01:45:16.823Z,96.06
2016-01-04T01:45:28.279Z,96.15
2016-01-04T01:45:39.748Z,96.15
2016-01-04T01:45:51.232Z,96.25
2016-01-04T01:46:02.716Z,96.25
2016-01-04T01:46:14.185Z,96.25
2016-01-04T01:46:25.672Z,96.25
2016-01-04T01:46:37.140Z,96.34
2016-01-04T01:46:48.656Z,97.09
2016-01-04T01:47:00.093Z,97
2016-01-04T01:47:11.547Z,96.72
2016-01-04T01:47:23.015Z,96.62
2016-01-04T01:47:34.470Z,96.91
2016-01-04T01:47:45.924Z,96.91
2016-01-04T01:47:57.377Z,96.72
2016-01-04T01:48:08.845Z,96.62
2016-01-04T01:48:20.299Z,97
2016-01-04T01:48:31.755Z,96.53
2016-01-04T01:48:43.208Z,96.25
2016-01-04T01:48:54.661Z,96.25
2016-01-04T01:49:06.130Z,96.25
2016-01-04T01:49:17.583Z,96.44
2016-01-04T01:49:29.039Z,96.34
2016-01-04T01:49:40.492Z,96.15
2016-01-04T01:49:51.945Z,96.34
2016-01-04T01:50:03.414Z,96.06
2016-01-04T01:50:14.883Z,95.92
2016-01-04T01:50:26.339Z,95.78
2016-01-04T01:50:37.808Z,95.59
2016-01-04T01:50:49.276Z,95.78
2016-01-04T01:51:00.745Z,95.78
2016-01-04T01:51:12.229Z,95.78
2016-01-04T01:51:23.698Z,95.68
2016-01-04T01:51:35.185Z,95.64
2016-01-04T01:51:46.669Z,95.64
2016-01-04T01:51:58.153Z,95.73
2016-01-04T01:52:09.622Z,96.06
2016-01-04T01:52:21.122Z,95.73
2016-01-04T01:52:32.578Z,95.73
2016-01-04T01:52:44.031Z,95.59
2016-01-04T01:52:55.484Z,95.5
2016-01-04T01:53:06.938Z,95.4
2016-01-04T01:53:18.391Z,95.68
2016-01-04T01:53:29.862Z,95.64
2016-01-04T01:53:41.316Z,95.92
2016-01-04T01:53:52.784Z,95.87
2016-01-04T01:54:04.237Z,95.35
2016-01-04T01:54:15.691Z,95.45
2016-01-04T01:54:26.425Z,95.45
2016-01-04T01:54:37.880Z,95.26
2016-01-04T01:54:49.333Z,95.16
2016-01-04T01:55:00.771Z,95.4
2016-01-04T01:55:12.208Z,95.64
2016-01-04T01:55:23.646Z,95.07
2016-01-04T01:55:35.118Z,95.16
2016-01-04T01:55:46.587Z,95.26
2016-01-04T01:55:58.056Z,95.35
2016-01-04T01:56:09.509Z,95.26
2016-01-04T01:56:20.978Z,95.07
2016-01-04T01:56:32.464Z,94.5
2016-01-04T01:56:43.230Z,94.98
2016-01-04T01:56:54.699Z,94.88
2016-01-04T01:57:06.183Z,94.79
2016-01-04T01:57:17.667Z,94.6
2016-01-04T01:57:29.152Z,94.88
2016-01-04T01:57:40.639Z,94.41
2016-01-04T01:57:52.123Z,94.41
2016-01-04T01:58:03.592Z,94.31
2016-01-04T01:58:15.045Z,94.41
2016-01-04T01:58:26.514Z,94.79
2016-01-04T01:58:37.969Z,94.31
2016-01-04T01:58:49.422Z,94.41
2016-01-04T01:59:00.875Z,94.5
2016-01-04T01:59:12.329Z,94.31
2016-01-04T01:59:23.782Z,94.69
2016-01-04T01:59:35.253Z,94.13
2016-01-04T01:59:46.707Z,94.22
2016-01-04T01:59:58.160Z,94.03
2016-01-04T02:00:09.613Z,94.79
2016-01-04T02:00:21.066Z,94.69
2016-01-04T02:00:32.506Z,94.5
2016-01-04T02:00:43.960Z,94.6
2016-01-04T02:00:55.413Z,94.5
2016-01-04T02:01:06.881Z,94.22
2016-01-04T02:01:18.350Z,94.22
2016-01-04T02:01:29.819Z,94.22
2016-01-04T02:01:41.291Z,94.6
2016-01-04T02:01:52.775Z,94.41
2016-01-04T02:02:04.228Z,94.79
2016-01-04T02:02:15.697Z,94.79
2016-01-04T02:02:27.181Z,94.69
2016-01-04T02:02:38.511Z,94.88
2016-01-04T02:02:49.996Z,94.31
2016-01-04T02:03:01.449Z,94.41
2016-01-04T02:03:12.886Z,94.41
2016-01-04T02:03:24.340Z,94.41
2016-01-04T02:03:35.796Z,94.98
2016-01-04T02:03:47.249Z,94.79
2016-01-04T02:03:58.718Z,94.88
2016-01-04T02:04:10.171Z,94.79
2016-01-04T02:04:21.608Z,94.88
2016-01-04T02:04:33.063Z,94.88
2016-01-04T02:04:44.532Z,94.5
2016-01-04T02:04:56.001Z,94.5
2016-01-04T02:05:07.438Z,94.13
2016-01-04T02:05:18.891Z,94.31
2016-01-04T02:05:30.345Z,94.31
2016-01-04T02:05:41.801Z,94.5
2016-01-04T02:05:53.269Z,94.13
2016-01-04T02:06:04.738Z,94.13
2016-01-04T02:06:16.191Z,94.41
2016-01-04T02:06:27.660Z,94.31
2016-01-04T02:06:39.116Z,94.22
2016-01-04T02:06:50.601Z,94.6
2016-01-04T02:07:02.069Z,94.13
2016-01-04T02:07:13.554Z,94.5
2016-01-04T02:07:25.022Z,94.5
2016-01-04T02:07:36.510Z,94.22
2016-01-04T02:07:47.275Z,94.41
2016-01-04T02:07:58.760Z,94.88
2016-01-04T02:08:10.229Z,94.98
2016-01-04T02:08:21.713Z,94.79
2016-01-04T02:08:33.166Z,94.69
2016-01-04T02:08:44.622Z,94.88
2016-01-04T02:08:56.075Z,95.02
2016-01-04T02:09:07.513Z,94.88
2016-01-04T02:09:18.263Z,95.12
2016-01-04T02:09:29.716Z,94.6
2016-01-04T02:09:41.187Z,94.5
2016-01-04T02:09:52.624Z,94.22
2016-01-04T02:10:04.077Z,94.6
2016-01-04T02:10:15.530Z,94.31
2016-01-04T02:10:26.984Z,94.31
2016-01-04T02:10:38.455Z,94.41
2016-01-04T02:10:49.908Z,94.22
2016-01-04T02:11:01.346Z,94.31
2016-01-04T02:11:12.799Z,94.13
2016-01-04T02:11:24.252Z,94.22
2016-01-04T02:11:35.721Z,94.03
2016-01-04T02:11:47.193Z,93.84
2016-01-04T02:11:58.646Z,94.13
2016-01-04T02:12:10.099Z,93.75
2016-01-04T02:12:21.568Z,94.13
2016-01-04T02:12:33.052Z,94.03
2016-01-04T02:12:44.538Z,93.75
2016-01-04T02:12:56.007Z,93.84
2016-01-04T02:13:07.492Z,93.84
2016-01-04T02:13:18.960Z,93.84
2016-01-04T02:13:30.445Z,94.03
2016-01-04T02:13:41.933Z,94.13
2016-01-04T02:13:53.433Z,94.22
2016-01-04T02:14:04.917Z,93.75
2016-01-04T02:14:16.355Z,94.13
2016-01-04T02:14:27.824Z,94.31
2016-01-04T02:14:39.279Z,93.94
2016-01-04T02:14:50.732Z,94.31
2016-01-04T02:15:02.169Z,94.6
2016-01-04T02:15:13.623Z,94.31
2016-01-04T02:15:24.919Z,94.22
2016-01-04T02:15:36.373Z,94.13
2016-01-04T02:15:47.829Z,94.31
2016-01-04T02:15:58.563Z,94.41
2016-01-04T02:16:10.016Z,94.41
2016-01-04T02:16:21.485Z,94.5
2016-01-04T02:16:32.938Z,95.07
2016-01-04T02:16:44.378Z,94.98
2016-01-04T02:16:55.831Z,94.98
2016-01-04T02:17:07.299Z,95.07
2016-01-04T02:17:18.768Z,95.07
2016-01-04T02:17:30.237Z,95.35
2016-01-04T02:17:41.690Z,95.54
2016-01-04T02:17:53.163Z,95.64
2016-01-04T02:18:04.632Z,95.45
2016-01-04T02:18:16.116Z,95.45
2016-01-04T02:18:27.585Z,95.45
2016-01-04T02:18:39.069Z,96.11
2016-01-04T02:18:50.555Z,95.78
2016-01-04T02:19:02.024Z,95.92
2016-01-04T02:19:13.524Z,96.39
2016-01-04T02:19:24.993Z,96.34
2016-01-04T02:19:36.477Z,96.53
2016-01-04T02:19:48.012Z,96.44
2016-01-04T02:19:59.465Z,96.25
2016-01-04T02:20:10.918Z,96.25
2016-01-04T02:20:22.355Z,96.25
2016-01-04T02:20:33.808Z,96.34
2016-01-04T02:20:45.279Z,96.25
2016-01-04T02:20:56.732Z,96.15
2016-01-04T02:21:08.185Z,96.15
2016-01-04T02:21:19.639Z,96.25
2016-01-04T02:21:31.076Z,96.44
2016-01-04T02:21:42.545Z,96.25
2016-01-04T02:21:54.016Z,96.44
2016-01-04T02:22:05.453Z,96.62
2016-01-04T02:22:16.906Z,96.44
2016-01-04T02:22:28.359Z,96.44
2016-01-04T02:22:39.828Z,96.06
2016-01-04T02:22:51.285Z,95.78
2016-01-04T02:23:02.754Z,96.15
2016-01-04T02:23:14.207Z,95.5
2016-01-04T02:23:25.676Z,95.21
2016-01-04T02:23:36.410Z,95.59
2016-01-04T02:23:47.882Z,95.87
2016-01-04T02:23:59.366Z,95.59
2016-01-04T02:24:10.851Z,95.5
2016-01-04T02:24:22.319Z,95.5
2016-01-04T02:24:33.804Z,95.5
2016-01-04T02:24:45.304Z,95.4
2016-01-04T02:24:56.790Z,95.4
2016-01-04T02:25:08.259Z,95.68
2016-01-04T02:25:19.728Z,95.59
2016-01-04T02:25:31.212Z,95.78
2016-01-04T02:25:42.650Z,95.78
2016-01-04T02:25:54.106Z,95.78
2016-01-04T02:26:05.543Z,95.4
2016-01-04T02:26:16.981Z,95.68
2016-01-04T02:26:28.434Z,96.06
2016-01-04T02:26:39.887Z,95.97
2016-01-04T02:26:51.343Z,95.78
2016-01-04T02:27:02.796Z,95.97
2016-01-04T02:27:14.249Z,96.15
2016-01-04T02:27:25.702Z,96.25
2016-01-04T02:27:37.171Z,96.34
2016-01-04T02:27:48.626Z,96.34
2016-01-04T02:28:00.079Z,96.34
2016-01-04T02:28:11.533Z,96.34
2016-01-04T02:28:22.986Z,96.53
2016-01-04T02:28:34.439Z,96.06
2016-01-04T02:28:45.908Z,96.06
2016-01-04T02:28:57.379Z,95.78
2016-01-04T02:29:08.848Z,95.97
2016-01-04T02:29:20.301Z,95.97
2016-01-04T02:29:31.754Z,95.78
2016-01-04T02:29:43.254Z,95.82
2016-01-04T02:29:54.726Z,95.87
2016-01-04T02:30:06.195Z,95.78
2016-01-04T02:30:17.679Z,96.01
2016-01-04T02:30:29.164Z,96.48
2016-01-04T02:30:40.648Z,96.39